This is the latest recevied weather packets stored in our database for station/object K7TSD. If no packets are shown the sender has not sent any weather packets the latest 10 day(s).
| Time | Temp. | Humidity | Pressure | Rain* | Wind** | Luminosity | Snow |
|---|---|---|---|---|---|---|---|
| 1777648196 | 12.22° C | 44% | 1017.4 hPa | 0 mm | - | 354 W/m² | - |
| 1777647892 | 11.67° C | 45% | 1017.6 hPa | 0 mm | - | 334 W/m² | - |
| 1777647589 | 11.67° C | 45% | 1017.3 hPa | 0 mm | - | 321 W/m² | - |
| 1777647285 | 11.67° C | 44% | 1017.4 hPa | 0 mm | - | 301 W/m² | - |
| 1777646982 | 11.11° C | 44% | 1017.1 hPa | 0 mm | - | 297 W/m² | - |
| 1777646678 | 11.67° C | 43% | 1017.4 hPa | 0 mm | - | 283 W/m² | - |
| 1777646374 | 11.11° C | 45% | 1017.2 hPa | 0 mm | - | 248 W/m² | - |
| 1777646071 | 11.11° C | 43% | 1017.2 hPa | 0 mm | - | 254 W/m² | - |
| 1777645767 | 11.11° C | 44% | 1017.4 hPa | 0 mm | - | 240 W/m² | - |
| 1777645465 | 10.56° C | 46% | 1017.3 hPa | 0 mm | - | 218 W/m² | - |
| 1777645160 | 10.56° C | 44% | 1017.3 hPa | 0 mm | - | 204 W/m² | - |
| 1777644857 | 10.56° C | 45% | 1017.3 hPa | 0 mm | - | 184 W/m² | - |
| 1777644556 | 10.56° C | 45% | 1017.3 hPa | 0 mm | - | 178 W/m² | - |
| 1777644250 | 10° C | 47% | 1017.3 hPa | 0 mm | - | 164 W/m² | - |
| 1777643947 | 10° C | 46% | 1017.3 hPa | 0 mm | - | 154 W/m² | - |
| 1777643645 | 10° C | 46% | 1017.6 hPa | 0 mm | - | 141 W/m² | - |
| 1777643341 | 10° C | 47% | 1017.5 hPa | 0 mm | - | 131 W/m² | - |
| 1777643038 | 9.44° C | 49% | 1017.3 hPa | 0 mm | - | 112 W/m² | - |
| 1777642735 | 9.44° C | 48% | 1017.2 hPa | 0 mm | - | 100 W/m² | - |
| 1777642432 | 8.89° C | 51% | 1017.5 hPa | 0 mm | - | 84 W/m² | - |
| 1777642128 | 8.33° C | 50% | 1017.3 hPa | 0 mm | - | 41 W/m² | - |
| 1777641824 | 8.33° C | 50% | 1017.1 hPa | 0 mm | - | 38 W/m² | - |
| 1777641520 | 7.78° C | 51% | 1017.3 hPa | 0 mm | - | 37 W/m² | - |
| 1777641214 | 7.78° C | 51% | 1017.2 hPa | 0 mm | - | 35 W/m² | - |
| 1777640912 | 7.22° C | 52% | 1017.2 hPa | 0 mm | - | 32 W/m² | - |
* Rain latest hour (hover to see other rain measurements)
** Current wind speed in m/s (hover to see current wind gust speed)